Repto Arenales, Puerto Rico
Current Conditions -  °F | °C
As of 1:53 PM on Monday 24 Nov 2014 (Local Time) from TJNR Reporting Station
Broken Clouds Broken Clouds  
Wind Chill: 81°   Ceiling: 5500
Heat Index: 86°   Visibility: 10mi
Dew Point: 74°   Wind: 20mph
Humidity: 79%   Direction: 110°ESE
Pressure: 30.03"   Gusts: 30mph
Location:  18.1853°N, 65.8667°W
Report Text: TJNR 241753Z AUTO 11017G26KT 10SM FEW029 SCT047 BKN055 27/23 A3003 RMK AO2 PK WND 12029/1741 SLP170 60000 T02720233 10300 20261 57020 $
Loading
Personal Weather Stations






























Interactive Weather Map New forecast layout! Learn more

10-Day Weather Forecast

Advertisements
Track Severe Weather on mobile